Terminal Aerodrome Forecast
Issued by NWS

Home | Current Version | Previous Version | Graphics & Text | Print | Product List | Glossary On
Versions: 1 2 3 4 5 6 7 8 9 10 11 12 13 14 15 16 17 18 19 20 21 22 23 24
000
FTUS43 KGRB 200500
TAFMTW
TAF
KMTW 200520Z 2006/2106 20011G18KT P6SM SCT035 BKN070 WS012/24040KT
      TEMPO 2009/2013 4SM SHRA SCT020 OVC035
     FM201300 22010G17KT P6SM BKN012 BKN080
      TEMPO 2013/2016 4SM BR OVC008
     FM201700 23012G18KT P6SM SCT015 BKN100 PROB30 2019/2021 4SM
      TSRA BKN020CB
     FM202100 25010G17KT P6SM SCT030 SCT100
     FM210000 25006KT P6SM SCT040 BKN070
      TEMPO 2105/2106 5SM -SHRA BR OVC035=

USA.gov is the U.S. government's official web portal to all federal, state and local government web resources and services.